createdAt,value
2023-05-14T00:02:13.156Z,101863.25
2023-05-14T00:07:35.068Z,101850.44
2023-05-14T00:12:56.831Z,101850.69
2023-05-14T00:18:18.621Z,101850.06
2023-05-14T00:23:40.436Z,101843.66
2023-05-14T00:29:02.276Z,101841.13
2023-05-14T00:34:24.699Z,101843.91
2023-05-14T00:39:46.461Z,101847.75
2023-05-14T00:45:09.604Z,101836.03
2023-05-14T00:50:31.758Z,101825.16
2023-05-14T00:55:53.780Z,101826.50
2023-05-14T01:01:15.667Z,101822.00
2023-05-14T01:06:52.129Z,101819.22
2023-05-14T01:12:16.609Z,101815.84
2023-05-14T01:17:43.717Z,101823.09
2023-05-14T01:23:05.654Z,101813.28
2023-05-14T01:28:33.245Z,101813.06
2023-05-14T01:33:57.687Z,101815.22
2023-05-14T01:39:20.312Z,101811.81
2023-05-14T01:44:43.200Z,101811.81
2023-05-14T01:50:05.747Z,101813.16
2023-05-14T01:55:27.596Z,101820.63
2023-05-14T02:00:49.620Z,101815.94
2023-05-14T02:06:11.778Z,101807.81
2023-05-14T02:11:36.584Z,101812.78
2023-05-14T02:16:58.529Z,101808.06
2023-05-14T02:22:20.339Z,101805.53
2023-05-14T02:27:42.131Z,101806.63
2023-05-14T02:33:04.304Z,101810.47
2023-05-14T02:38:26.862Z,101807.69
2023-05-14T02:43:48.679Z,101817.13
2023-05-14T02:49:10.448Z,101811.56
2023-05-14T02:54:32.573Z,101812.63
2023-05-14T02:59:54.886Z,101808.16
2023-05-14T03:05:17.077Z,101799.22
2023-05-14T03:10:38.895Z,101804.78
2023-05-14T03:16:00.841Z,101805.63
2023-05-14T03:21:22.661Z,101802.25
2023-05-14T03:26:44.473Z,101809.72
2023-05-14T03:32:06.943Z,101793.03
2023-05-14T03:37:28.717Z,101792.47
2023-05-14T03:42:50.478Z,101795.22
2023-05-14T03:48:12.551Z,101785.19
2023-05-14T03:53:34.384Z,101789.06
2023-05-14T03:58:56.381Z,101798.47
2023-05-14T04:04:18.256Z,101790.97
2023-05-14T04:09:40.054Z,101792.31
2023-05-14T04:15:01.866Z,101789.53
2023-05-14T04:20:23.857Z,101793.38
2023-05-14T04:25:46.708Z,101794.47
2023-05-14T04:31:08.521Z,101798.31
2023-05-14T04:36:30.353Z,101794.72
2023-05-14T04:41:52.225Z,101800.28
2023-05-14T04:47:14.047Z,101791.31
2023-05-14T04:52:36.024Z,101793.25
2023-05-14T04:57:57.856Z,101793.25
2023-05-14T05:03:19.891Z,101793.25
2023-05-14T05:08:41.942Z,101805.47
2023-05-14T05:14:03.767Z,101809.31
2023-05-14T05:19:35.760Z,101804.84
2023-05-14T05:25:01.934Z,101808.44
2023-05-14T05:30:23.935Z,101811.47
2023-05-14T05:35:45.870Z,101810.59
2023-05-14T05:41:07.793Z,101802.53
2023-05-14T05:46:29.654Z,101813.63
2023-05-14T05:51:51.463Z,101812.72
2023-05-14T05:57:13.303Z,101806.81
2023-05-14T06:02:35.228Z,101810.56
2023-05-14T06:07:57.137Z,101813.72
2023-05-14T06:13:18.976Z,101811.56
2023-05-14T06:18:41.167Z,101815.41
2023-05-14T06:24:03.081Z,101815.66
2023-05-14T06:29:25.575Z,101824.22
2023-05-14T06:34:47.360Z,101836.41
2023-05-14T06:40:09.540Z,101849.72
2023-05-14T06:45:33.205Z,101834.34
2023-05-14T06:50:55.638Z,101835.44
2023-05-14T06:56:17.395Z,101825.41
2023-05-14T07:01:39.276Z,101823.94
2023-05-14T07:07:01.149Z,101823.31
2023-05-14T07:12:22.938Z,101825.31
2023-05-14T07:17:45.448Z,101820.03
2023-05-14T07:23:07.425Z,101832.06
2023-05-14T07:28:29.289Z,101828.19
2023-05-14T07:33:51.120Z,101825.09
2023-05-14T07:39:12.970Z,101818.34
2023-05-14T07:44:34.788Z,101817.63
2023-05-14T07:49:57.721Z,101805.41
2023-05-14T07:55:19.771Z,101806.84
2023-05-14T08:00:41.682Z,101809.28
2023-05-14T08:06:04.247Z,101804.91
2023-05-14T08:11:26.453Z,101815.09
2023-05-14T08:16:48.884Z,101812.91
2023-05-14T08:22:10.789Z,101818.72
2023-05-14T08:27:32.735Z,101803.97
2023-05-14T08:32:54.522Z,101805.66
2023-05-14T08:38:16.528Z,101809.06
2023-05-14T08:44:12.219Z,101800.81
2023-05-14T08:49:41.295Z,101793.53
2023-05-14T08:55:06.702Z,101787.63
2023-05-14T09:00:28.612Z,101787.41
2023-05-14T09:05:51.850Z,101798.16
2023-05-14T09:11:13.668Z,101783.28
2023-05-14T09:16:37.288Z,101782.44
2023-05-14T09:22:02.653Z,101776.25
2023-05-14T09:27:26.182Z,101773.00
2023-05-14T09:32:49.711Z,101777.59
2023-05-14T09:38:11.855Z,101767.66
2023-05-14T09:43:33.758Z,101765.50
2023-05-14T09:48:57.095Z,101774.44
2023-05-14T09:54:18.957Z,101772.28
2023-05-14T09:59:41.579Z,101766.72
2023-05-14T10:05:06.245Z,101750.00
2023-05-14T10:10:30.448Z,101753.41
2023-05-14T10:16:02.537Z,101748.44
2023-05-14T10:21:28.622Z,101740.94
2023-05-14T10:26:50.733Z,101740.69
2023-05-14T10:32:15.158Z,101735.97
2023-05-14T10:37:37.018Z,101730.16
2023-05-14T10:42:59.590Z,101737.41
2023-05-14T10:48:21.611Z,101724.09
2023-05-14T10:53:44.236Z,101723.84
2023-05-14T10:59:06.970Z,101719.16
2023-05-14T11:04:28.863Z,101710.19
2023-05-14T11:09:51.726Z,101711.28
2023-05-14T11:15:21.436Z,101704.63
2023-05-14T11:20:43.296Z,101702.94
2023-05-14T11:26:05.179Z,101701.25
2023-05-14T11:31:27.945Z,101690.38
2023-05-14T11:36:49.803Z,101689.50
2023-05-14T11:42:14.784Z,101679.47
2023-05-14T11:47:36.796Z,101672.59
2023-05-14T11:52:58.824Z,101662.63
2023-05-14T11:58:21.718Z,101664.09
2023-05-14T12:03:43.921Z,101668.06
2023-05-14T12:09:06.865Z,101662.00
2023-05-14T12:14:29.031Z,101663.44
2023-05-14T12:19:52.564Z,101652.69
2023-05-14T12:25:14.697Z,101661.59
2023-05-14T12:30:39.541Z,101645.28
2023-05-14T12:36:17.584Z,101632.81
2023-05-14T12:41:42.299Z,101627.84
2023-05-14T12:47:04.751Z,101622.88
2023-05-14T12:52:37.961Z,101611.75
2023-05-14T12:58:01.662Z,101613.34
2023-05-14T13:03:23.789Z,101598.78
2023-05-14T13:08:45.948Z,101600.72
2023-05-14T13:14:08.048Z,101594.03
2023-05-14T13:19:30.349Z,101589.34
2023-05-14T13:24:52.154Z,101585.50
2023-05-14T13:30:14.075Z,101577.13
2023-05-14T13:35:36.282Z,101577.97
2023-05-14T13:41:02.718Z,101571.91
2023-05-14T13:46:24.986Z,101568.88
2023-05-14T13:51:47.104Z,101551.06
2023-05-14T13:57:09.172Z,101539.38
2023-05-14T14:02:34.245Z,101541.03
2023-05-14T14:08:04.357Z,101532.66
2023-05-14T14:13:34.913Z,101528.78
2023-05-14T14:18:57.682Z,101525.19
2023-05-14T14:24:20.094Z,101516.81
2023-05-14T14:29:41.933Z,101516.56
2023-05-14T14:35:03.936Z,101517.66
2023-05-14T14:40:26.613Z,101511.25
2023-05-14T14:45:49.181Z,101508.75
2023-05-14T14:51:11.289Z,101505.97
2023-05-14T14:56:33.710Z,101504.84
2023-05-14T15:01:55.562Z,101502.03
2023-05-14T15:07:18.894Z,101507.38
2023-05-14T15:12:41.374Z,101504.59
2023-05-14T15:18:04.589Z,101500.13
2023-05-14T15:23:26.397Z,101498.16
2023-05-14T15:28:48.185Z,101507.63
2023-05-14T15:34:10.138Z,101512.09
2023-05-14T15:39:32.116Z,101506.78
2023-05-14T15:44:53.976Z,101501.72
2023-05-14T15:50:15.816Z,101504.75
2023-05-14T15:55:37.660Z,101504.97
2023-05-14T16:00:59.405Z,101499.66
2023-05-14T16:06:21.233Z,101505.22
2023-05-14T16:11:43.020Z,101507.41
2023-05-14T16:17:05.022Z,101509.09
2023-05-14T16:22:27.811Z,101509.09
2023-05-14T16:27:49.713Z,101507.19
2023-05-14T16:33:12.169Z,101505.81
2023-05-14T16:38:35.509Z,101511.38
2023-05-14T16:43:58.577Z,101504.75
2023-05-14T16:49:22.605Z,101511.38
2023-05-14T16:54:44.372Z,101512.25
2023-05-14T17:00:06.887Z,101510.53
2023-05-14T17:05:29.141Z,101515.91
2023-05-14T17:10:50.970Z,101521.19
2023-05-14T17:16:12.833Z,101519.75
2023-05-14T17:21:34.619Z,101524.44
2023-05-14T17:26:56.452Z,101527.50
2023-05-14T17:32:19.213Z,101533.31
2023-05-14T17:37:43.022Z,101541.91
2023-05-14T17:43:04.809Z,101546.91
2023-05-14T17:48:26.618Z,101545.78
2023-05-14T17:53:48.406Z,101553.03
2023-05-14T17:59:10.273Z,101552.22
2023-05-14T18:04:32.204Z,101558.28
2023-05-14T18:09:54.190Z,101552.38
2023-05-14T18:15:16.285Z,101558.41
2023-05-14T18:20:38.080Z,101572.00
2023-05-14T18:25:59.939Z,101567.78
2023-05-14T18:31:22.180Z,101581.09
2023-05-14T18:36:44.135Z,101581.09
2023-05-14T18:42:06.249Z,101578.56
2023-05-14T18:47:28.210Z,101588.84
2023-05-14T18:52:50.066Z,101584.38
2023-05-14T18:58:12.327Z,101573.50
2023-05-14T19:03:34.374Z,101577.09
2023-05-14T19:08:56.276Z,101577.38
2023-05-14T19:14:18.048Z,101574.81
2023-05-14T19:19:39.869Z,101572.28
2023-05-14T19:25:01.821Z,101588.16
2023-05-14T19:30:23.874Z,101583.91
2023-05-14T19:35:46.052Z,101575.56
2023-05-14T19:41:07.867Z,101581.38
2023-05-14T19:46:29.811Z,101581.38
2023-05-14T19:51:51.677Z,101592.78
2023-05-14T19:57:13.517Z,101605.81
2023-05-14T20:02:35.449Z,101611.66
2023-05-14T20:07:57.264Z,101604.88
2023-05-14T20:13:19.129Z,101607.06
2023-05-14T20:18:43.886Z,101601.75
2023-05-14T20:24:06.083Z,101603.91
2023-05-14T20:29:28.001Z,101609.97
2023-05-14T20:34:49.838Z,101607.09
2023-05-14T20:40:14.686Z,101602.03
2023-05-14T20:45:36.948Z,101604.19
2023-05-14T20:50:59.005Z,101607.84
2023-05-14T20:56:21.281Z,101601.41
2023-05-14T21:01:43.116Z,101597.19
2023-05-14T21:07:05.751Z,101596.34
2023-05-14T21:12:27.515Z,101591.03
2023-05-14T21:17:49.364Z,101594.91
2023-05-14T21:23:11.158Z,101588.72
2023-05-14T21:28:32.975Z,101580.63
2023-05-14T21:33:55.039Z,101581.69
2023-05-14T21:39:16.960Z,101586.44
2023-05-14T21:44:38.889Z,101589.44
2023-05-14T21:50:00.662Z,101589.44
2023-05-14T21:55:22.952Z,101587.75
2023-05-14T22:00:45.042Z,101584.34
2023-05-14T22:06:07.177Z,101595.47
2023-05-14T22:11:29.078Z,101584.88
2023-05-14T22:16:50.952Z,101583.19
2023-05-14T22:22:12.776Z,101587.03
2023-05-14T22:27:34.624Z,101585.34
2023-05-14T22:32:56.512Z,101580.03
2023-05-14T22:38:20.176Z,101565.28
2023-05-14T22:43:42.371Z,101570.50
2023-05-14T22:49:04.178Z,101564.94
2023-05-14T22:54:26.196Z,101557.69
2023-05-14T22:59:47.967Z,101555.97
2023-05-14T23:05:10.129Z,101551.50
2023-05-14T23:10:32.024Z,101533.41
2023-05-14T23:15:53.917Z,101535.31
2023-05-14T23:21:15.952Z,101530.00
2023-05-14T23:26:37.809Z,101530.00
2023-05-14T23:31:59.668Z,101537.75
2023-05-14T23:37:21.694Z,101548.88
2023-05-14T23:42:44.650Z,101528.81
2023-05-14T23:48:06.526Z,101525.19
2023-05-14T23:53:28.386Z,101515.16
2023-05-14T23:58:50.344Z,101506.22
